createdAt,value
2022-09-23T00:04:03.304Z,8.37
2022-09-23T00:09:11.314Z,9.33
2022-09-23T00:14:17.639Z,9.07
2022-09-23T00:19:22.386Z,7.77
2022-09-23T00:24:24.710Z,10.20
2022-09-23T00:29:29.283Z,8.33
2022-09-23T00:34:34.169Z,7.97
2022-09-23T00:39:36.482Z,10.17
2022-09-23T00:44:42.066Z,8.73
2022-09-23T00:49:49.527Z,8.53
2022-09-23T00:54:58.996Z,8.60
2022-09-23T01:00:01.459Z,9.23
2022-09-23T01:05:07.219Z,8.63
2022-09-23T01:10:10.843Z,7.93
2022-09-23T01:15:19.436Z,8.33
2022-09-23T01:20:42.875Z,6.77
2022-09-23T01:26:06.311Z,7.20
2022-09-23T01:31:13.259Z,9.47
2022-09-23T01:36:20.765Z,8.60
2022-09-23T01:41:46.406Z,6.07
2022-09-23T01:46:56.823Z,8.47
2022-09-23T01:52:11.053Z,8.73
2022-09-23T01:57:21.957Z,8.90
2022-09-23T02:02:28.609Z,6.77
2022-09-23T02:07:38.914Z,10.57
2022-09-23T02:12:45.194Z,8.00
2022-09-23T02:17:52.182Z,7.63
2022-09-23T02:22:56.535Z,6.37
2022-09-23T02:28:21.150Z,7.83
2022-09-23T02:33:36.804Z,6.20
2022-09-23T02:38:43.930Z,6.33
2022-09-23T02:43:46.211Z,6.70
2022-09-23T02:48:53.391Z,6.17
2022-09-23T02:54:03.580Z,6.47
2022-09-23T02:59:06.246Z,5.53
2022-09-23T03:04:27.380Z,6.13
2022-09-23T03:09:40.314Z,5.93
2022-09-23T03:14:57.306Z,5.27
2022-09-23T03:20:04.707Z,7.20
2022-09-23T03:25:13.056Z,5.30
2022-09-23T03:30:15.464Z,4.70
2022-09-23T03:35:17.819Z,6.50
2022-09-23T03:40:24.510Z,5.67
2022-09-23T03:45:29.844Z,5.60
2022-09-23T03:50:32.421Z,5.20
2022-09-23T03:55:39.465Z,4.20
2022-09-23T04:00:44.383Z,4.10
2022-09-23T04:05:48.555Z,4.37
2022-09-23T04:10:54.727Z,8.80
2022-09-23T04:15:57.460Z,5.73
2022-09-23T04:21:02.763Z,4.00
2022-09-23T04:26:08.522Z,5.00
2022-09-23T04:31:11.140Z,6.03
2022-09-23T04:36:15.924Z,8.57
2022-09-23T04:41:18.698Z,9.07
2022-09-23T04:46:26.300Z,6.10
2022-09-23T04:51:28.905Z,8.67
2022-09-23T04:56:38.751Z,7.83
2022-09-23T05:01:43.742Z,8.97
2022-09-23T05:06:51.175Z,9.87
2022-09-23T05:11:53.569Z,8.47
2022-09-23T05:16:55.871Z,6.67
2022-09-23T05:21:58.154Z,7.07
2022-09-23T05:27:02.846Z,9.10
2022-09-23T05:32:05.210Z,11.60
2022-09-23T05:37:07.575Z,11.53
2022-09-23T05:42:12.631Z,8.03
2022-09-23T05:47:18.090Z,8.70
2022-09-23T05:52:22.855Z,7.30
2022-09-23T05:57:27.430Z,10.50
2022-09-23T06:02:29.759Z,10.03
2022-09-23T06:07:32.728Z,9.93
2022-09-23T06:12:37.592Z,9.30
2022-09-23T06:17:42.443Z,8.73
2022-09-23T06:22:50.124Z,11.20
2022-09-23T06:28:00.364Z,9.17
2022-09-23T06:33:04.811Z,9.27
2022-09-23T06:38:09.740Z,9.60
2022-09-23T06:43:12.537Z,6.30
2022-09-23T06:48:15.109Z,5.50
2022-09-23T06:53:17.588Z,6.90
2022-09-23T06:58:21.037Z,7.10
2022-09-23T07:03:27.521Z,6.53
2022-09-23T07:08:34.126Z,7.10
2022-09-23T07:13:37.617Z,6.27
2022-09-23T07:18:41.193Z,5.40
2022-09-23T07:23:47.121Z,12.57
2022-09-23T07:28:56.858Z,8.87
2022-09-23T07:34:03.939Z,6.40
2022-09-23T07:39:12.278Z,5.77
2022-09-23T07:44:14.562Z,7.60
2022-09-23T07:49:20.706Z,6.95
2022-09-23T07:54:29.709Z,5.73
2022-09-23T07:59:36.617Z,7.57
2022-09-23T08:04:38.895Z,8.53
2022-09-23T08:09:41.978Z,4.47
2022-09-23T08:14:45.490Z,2.47
2022-09-23T08:19:50.383Z,4.50
2022-09-23T08:24:56.517Z,3.20
2022-09-23T08:30:01.153Z,2.10
2022-09-23T08:35:03.592Z,2.80
2022-09-23T08:40:08.902Z,2.80
2022-09-23T08:45:19.764Z,2.43
2022-09-23T08:50:23.719Z,1.10
2022-09-23T08:55:41.583Z,2.10
2022-09-23T09:00:47.880Z,2.40
2022-09-23T09:05:54.583Z,2.30
2022-09-23T09:10:59.749Z,2.50
2022-09-23T09:16:41.865Z,1.52
2022-09-23T09:21:49.964Z,2.20
2022-09-23T09:26:55.332Z,1.30
2022-09-23T09:32:03.067Z,3.42
2022-09-23T09:37:23.451Z,1.98
2022-09-23T09:42:40.002Z,2.63
2022-09-23T09:47:47.383Z,2.38
2022-09-23T09:52:57.773Z,1.53
2022-09-23T09:58:04.221Z,2.85
2022-09-23T10:03:26.965Z,2.50
2022-09-23T10:08:35.064Z,3.13
2022-09-23T10:13:42.374Z,2.25
2022-09-23T10:18:47.891Z,0.98
2022-09-23T10:23:58.691Z,10.98
2022-09-23T10:29:02.559Z,3.17
2022-09-23T10:34:34.955Z,1.88
2022-09-23T10:39:58.226Z,2.97
2022-09-23T10:45:39.701Z,4.05
2022-09-23T10:50:52.502Z,2.25
2022-09-23T10:56:07.181Z,1.55
2022-09-23T11:01:25.351Z,2.60
2022-09-23T11:06:27.894Z,2.70
2022-09-23T11:11:55.048Z,3.55
2022-09-23T11:16:58.331Z,2.93
2022-09-23T11:22:10.718Z,3.55
2022-09-23T11:27:28.646Z,1.83
2022-09-23T11:32:33.976Z,4.35
2022-09-23T11:37:40.914Z,2.65
2022-09-23T11:43:00.608Z,3.78
2022-09-23T11:48:11.957Z,2.08
2022-09-23T11:53:28.886Z,2.28
2022-09-23T11:58:33.865Z,5.55
2022-09-23T12:04:03.452Z,4.90
2022-09-23T12:09:47.354Z,2.23
2022-09-23T12:14:50.345Z,5.85
2022-09-23T12:19:54.739Z,1.55
2022-09-23T12:25:10.437Z,1.87
2022-09-23T12:30:21.022Z,0.97
2022-09-23T12:35:25.244Z,2.20
2022-09-23T12:40:33.516Z,2.63
2022-09-23T12:45:37.836Z,1.92
2022-09-23T12:50:51.800Z,1.90
2022-09-23T12:55:54.436Z,2.25
2022-09-23T13:01:07.443Z,1.40
2022-09-23T13:06:29.760Z,2.63
2022-09-23T13:11:32.796Z,1.77
2022-09-23T13:16:39.390Z,4.03
2022-09-23T13:21:46.114Z,3.67
2022-09-23T13:26:51.601Z,39.83
2022-09-23T13:31:58.101Z,4.15
2022-09-23T13:37:40.958Z,1.73
2022-09-23T13:42:52.007Z,2.10
2022-09-23T13:47:59.009Z,4.10
2022-09-23T13:53:02.576Z,2.25
2022-09-23T13:58:13.976Z,3.88
2022-09-23T14:03:24.059Z,3.17
2022-09-23T14:08:27.327Z,1.88
2022-09-23T14:13:35.165Z,2.72
2022-09-23T14:18:41.405Z,1.70
2022-09-23T14:23:46.051Z,2.38
2022-09-23T14:28:48.605Z,5.53
2022-09-23T14:33:51.093Z,2.57
2022-09-23T14:44:00.478Z,2.92
2022-09-23T15:34:54.205Z,3.07
2022-09-23T15:39:58.990Z,3.40
2022-09-23T15:45:01.309Z,2.77
2022-09-23T15:50:07.249Z,1.77
2022-09-23T15:55:17.299Z,2.03
2022-09-23T16:00:24.252Z,2.93
2022-09-23T16:05:36.320Z,1.77
2022-09-23T16:10:38.951Z,1.80
2022-09-23T16:15:44.589Z,2.20
2022-09-23T16:20:52.302Z,1.73
2022-09-23T16:26:00.103Z,2.83
2022-09-23T16:31:03.174Z,3.28
2022-09-23T16:36:14.383Z,3.78
2022-09-23T16:41:16.949Z,15.77
2022-09-23T16:46:23.980Z,10.50
2022-09-23T16:51:27.356Z,5.72
2022-09-23T16:56:30.989Z,4.17
2022-09-23T17:01:52.216Z,4.72
2022-09-23T17:06:57.238Z,4.45
2022-09-23T17:12:07.786Z,3.60
2022-09-23T17:17:12.570Z,6.50
2022-09-23T17:22:17.268Z,5.50
2022-09-23T17:27:19.601Z,6.78
2022-09-23T17:32:22.045Z,11.33
2022-09-23T17:37:24.457Z,14.53
2022-09-23T17:42:35.718Z,19.80
2022-09-23T17:47:43.481Z,20.17
2022-09-23T17:52:45.900Z,17.23
2022-09-23T17:57:50.642Z,14.07
2022-09-23T18:02:56.039Z,16.87
2022-09-23T18:07:59.550Z,10.77
2022-09-23T18:13:04.187Z,10.43
2022-09-23T18:18:06.768Z,8.45
2022-09-23T18:23:11.620Z,22.10
2022-09-23T18:28:16.534Z,46.77
2022-09-23T18:33:19.044Z,35.90
2022-09-23T18:38:23.553Z,22.90
2022-09-23T18:43:32.072Z,22.27
2022-09-23T18:48:56.315Z,25.63
2022-09-23T18:53:59.648Z,16.27
2022-09-23T18:59:06.432Z,18.73
2022-09-23T19:04:09.183Z,22.50
2022-09-23T19:09:17.882Z,12.95
2022-09-23T19:14:20.275Z,20.03
2022-09-23T19:19:23.526Z,17.48
2022-09-23T19:24:28.351Z,17.58
2022-09-23T19:29:31.019Z,16.52
2022-09-23T19:34:34.777Z,15.10
2022-09-23T19:44:43.479Z,24.80
2022-09-23T19:49:45.943Z,20.67
2022-09-23T19:54:52.992Z,23.25
2022-09-23T19:59:55.363Z,17.47
2022-09-23T20:04:57.610Z,14.43
2022-09-23T20:09:59.959Z,21.67
2022-09-23T20:15:05.660Z,17.48
2022-09-23T20:20:09.735Z,14.73
2022-09-23T20:25:17.882Z,12.10
2022-09-23T20:30:20.968Z,12.40
2022-09-23T20:35:25.648Z,13.10
2022-09-23T20:40:30.420Z,10.75
2022-09-23T20:45:33.122Z,11.73
2022-09-23T20:50:37.825Z,11.57
2022-09-23T20:55:55.367Z,11.40
2022-09-23T21:01:02.881Z,11.68
2022-09-23T21:06:09.191Z,10.15
2022-09-23T21:11:15.567Z,12.83
2022-09-23T21:16:19.241Z,10.43
2022-09-23T21:21:22.424Z,9.77
2022-09-23T21:26:30.384Z,11.57
2022-09-23T21:31:34.504Z,14.50
2022-09-23T21:36:41.493Z,9.98
2022-09-23T21:41:44.045Z,11.23
2022-09-23T21:46:57.559Z,11.67
2022-09-23T21:52:02.462Z,10.88
2022-09-23T21:57:08.234Z,9.20
2022-09-23T22:02:12.900Z,13.07
2022-09-23T22:07:20.196Z,10.18
2022-09-23T22:12:22.487Z,9.07
2022-09-23T22:17:24.945Z,9.87
2022-09-23T22:22:27.207Z,11.23
2022-09-23T22:27:32.485Z,13.70
2022-09-23T22:32:40.956Z,26.95
2022-09-23T22:37:48.415Z,50.20
2022-09-23T22:42:54.311Z,40.90
2022-09-23T22:47:56.875Z,20.27
2022-09-23T22:53:01.931Z,11.32
2022-09-23T22:58:27.595Z,23.77
2022-09-23T23:03:27.125Z,11.88
2022-09-23T23:08:29.771Z,16.55
2022-09-23T23:13:32.724Z,28.75
2022-09-23T23:18:40.260Z,26.67
2022-09-23T23:23:47.502Z,21.60
2022-09-23T23:28:50.677Z,23.88
2022-09-23T23:33:55.295Z,22.23
2022-09-23T23:38:57.716Z,18.63
2022-09-23T23:44:05.565Z,19.63
2022-09-23T23:49:10.643Z,17.33
2022-09-23T23:54:12.963Z,23.15
2022-09-23T23:59:23.772Z,23.20
